Time,TemperatureF,DewpointF,PressureIn,WindDirection,WindDirectionDegrees,WindSpeedMPH,WindSpeedGustMPH,Humidity,HourlyPrecipIn,Conditions,Clouds,dailyrainin,SoftwareType,DateUTC
2013-09-01 05:27:00,71.2,70.9,29.81,ESE,122,0.0,0.0,99,0.00,,,0.00,VWS V14.01,2013-09-01 09:27:00,
2013-09-01 05:28:00,71.3,71.0,29.81,ESE,122,0.0,0.0,99,0.00,,,0.00,VWS V14.01,2013-09-01 09:28:00,
2013-09-01 05:29:00,71.3,71.0,29.81,ESE,122,0.0,0.0,99,0.00,,,0.00,VWS V14.01,2013-09-01 09:29:00,
2013-09-01 05:30:00,71.3,71.0,29.81,ESE,122,0.0,0.0,99,0.00,,,0.00,VWS V14.01,2013-09-01 09:30:00,
2013-09-01 05:35:00,71.3,71.0,29.81,ESE,122,0.0,0.0,99,0.00,,,0.00,VWS V14.01,2013-09-01 09:35:00,
2013-09-01 05:40:00,71.3,71.0,29.81,ESE,122,0.0,0.0,99,0.00,,,0.00,VWS V14.01,2013-09-01 09:40:00,
2013-09-01 05:45:00,71.3,71.0,29.81,ESE,122,0.0,0.0,99,0.00,,,0.00,VWS V14.01,2013-09-01 09:45:00,
2013-09-01 05:50:00,71.3,71.0,29.81,ESE,122,0.0,0.0,99,0.00,,,0.00,VWS V14.01,2013-09-01 09:50:00,
2013-09-01 05:55:00,71.3,71.0,29.81,ESE,122,0.0,0.0,99,0.00,,,0.00,VWS V14.01,2013-09-01 09:55:00,
2013-09-01 06:00:00,71.3,71.0,29.81,ESE,122,0.0,0.0,99,0.00,,,0.00,VWS V14.01,2013-09-01 10:00:00,
2013-09-01 06:05:00,71.3,71.0,29.82,ESE,122,0.0,0.0,99,0.00,,,0.00,VWS V14.01,2013-09-01 10:05:00,
2013-09-01 06:11:00,71.3,71.0,29.82,ESE,122,0.0,0.0,99,0.00,,,0.00,VWS V14.01,2013-09-01 10:11:00,
2013-09-01 06:16:00,71.3,71.0,29.82,ESE,122,0.0,0.0,99,0.00,,,0.00,VWS V14.01,2013-09-01 10:16:00,
2013-09-01 06:21:00,71.3,71.0,29.82,ESE,122,0.0,0.0,99,0.00,,,0.00,VWS V14.01,2013-09-01 10:21:00,
2013-09-01 06:26:00,71.3,71.0,29.82,ESE,122,0.0,0.0,99,0.00,,,0.00,VWS V14.01,2013-09-01 10:26:00,
2013-09-01 06:31:00,71.4,71.1,29.82,ESE,122,0.0,0.0,99,0.00,,,0.00,VWS V14.01,2013-09-01 10:31:00,
2013-09-01 06:36:00,71.5,71.2,29.82,ESE,122,0.0,0.0,99,0.00,,,0.00,VWS V14.01,2013-09-01 10:36:00,
2013-09-01 06:41:00,71.5,71.2,29.82,ESE,122,0.0,0.0,99,0.00,,,0.00,VWS V14.01,2013-09-01 10:41:00,
2013-09-01 06:46:00,71.5,71.2,29.82,ESE,122,0.0,0.0,99,0.00,,,0.00,VWS V14.01,2013-09-01 10:46:00,
2013-09-01 06:51:00,71.5,71.2,29.82,ESE,122,0.0,0.0,99,0.00,,,0.00,VWS V14.01,2013-09-01 10:51:00,
2013-09-01 06:57:00,71.5,71.2,29.82,ESE,122,0.0,0.0,99,0.00,,,0.00,VWS V14.01,2013-09-01 10:57:00,
2013-09-01 07:02:00,71.5,71.2,29.82,ESE,122,0.0,0.0,99,0.00,,,0.00,VWS V14.01,2013-09-01 11:02:00,
2013-09-01 07:07:00,71.6,71.3,29.82,ESE,122,0.0,0.0,99,0.00,,,0.00,VWS V14.01,2013-09-01 11:07:00,
2013-09-01 07:12:00,71.7,71.4,29.83,ESE,122,0.0,0.0,99,0.00,,,0.00,VWS V14.01,2013-09-01 11:12:00,
2013-09-01 07:17:00,71.7,71.4,29.83,ESE,122,0.0,0.0,99,0.00,,,0.00,VWS V14.01,2013-09-01 11:17:00,
2013-09-01 07:22:00,71.8,71.5,29.83,ESE,122,0.0,0.0,99,0.00,,,0.00,VWS V14.01,2013-09-01 11:22:00,
2013-09-01 07:27:00,71.9,71.9,29.83,ESE,122,0.0,0.0,100,0.00,,,0.00,VWS V14.01,2013-09-01 11:27:00,
2013-09-01 07:32:00,71.9,71.9,29.83,ESE,122,0.0,0.0,100,0.00,,,0.00,VWS V14.01,2013-09-01 11:32:00,
2013-09-01 07:37:00,72.0,72.0,29.83,ESE,122,0.0,0.0,100,0.00,,,0.00,VWS V14.01,2013-09-01 11:37:00,
2013-09-01 07:42:00,72.1,72.1,29.83,ESE,122,0.0,0.0,100,0.00,,,0.00,VWS V14.01,2013-09-01 11:42:00,
2013-09-01 07:48:00,72.1,72.1,29.83,ESE,122,0.0,0.0,100,0.00,,,0.00,VWS V14.01,2013-09-01 11:48:00,
2013-09-01 07:53:00,72.2,72.2,29.83,ESE,122,0.0,0.0,100,0.00,,,0.00,VWS V14.01,2013-09-01 11:53:00,
2013-09-01 07:58:00,72.4,72.4,29.83,ESE,122,0.0,0.0,100,0.00,,,0.00,VWS V14.01,2013-09-01 11:58:00,
2013-09-01 08:03:00,72.5,72.5,29.83,ESE,122,0.0,0.0,100,0.00,,,0.00,VWS V14.01,2013-09-01 12:03:00,
2013-09-01 08:08:00,72.7,72.7,29.83,ESE,122,0.0,0.0,100,0.00,,,0.00,VWS V14.01,2013-09-01 12:08:00,
2013-09-01 08:13:00,72.9,72.9,29.83,ESE,122,0.0,0.0,100,0.00,,,0.00,VWS V14.01,2013-09-01 12:13:00,
2013-09-01 08:18:00,73.0,73.0,29.83,ESE,122,1.0,1.0,100,0.00,,,0.00,VWS V14.01,2013-09-01 12:18:00,
2013-09-01 08:23:00,73.0,73.0,29.83,ESE,122,0.0,1.0,100,0.00,,,0.00,VWS V14.01,2013-09-01 12:23:00,
2013-09-01 08:28:00,73.0,73.0,29.82,ESE,122,0.0,2.0,100,0.00,,,0.00,VWS V14.01,2013-09-01 12:28:00,
2013-09-01 08:34:00,73.0,73.0,29.83,ESE,122,0.0,1.0,100,0.00,,,0.00,VWS V14.01,2013-09-01 12:34:00,
2013-09-01 08:39:00,72.9,72.9,29.83,ESE,122,0.0,1.0,100,0.00,,,0.00,VWS V14.01,2013-09-01 12:39:00,
2013-09-01 08:44:00,72.9,72.9,29.83,SE,133,0.0,2.0,100,0.00,,,0.00,VWS V14.01,2013-09-01 12:44:00,
2013-09-01 08:49:00,72.9,72.6,29.82,South,180,0.0,2.0,99,0.00,,,0.00,VWS V14.01,2013-09-01 12:49:00,
2013-09-01 08:54:00,73.0,73.0,29.82,South,180,0.0,2.0,100,0.00,,,0.00,VWS V14.01,2013-09-01 12:54:00,
2013-09-01 08:59:00,73.1,73.1,29.82,South,180,0.0,2.0,100,0.00,,,0.00,VWS V14.01,2013-09-01 12:59:00,
2013-09-01 09:04:00,73.3,73.3,29.82,South,180,0.0,2.0,100,0.00,,,0.00,VWS V14.01,2013-09-01 13:04:00,
2013-09-01 09:09:00,73.4,73.4,29.82,South,180,0.0,2.0,100,0.00,,,0.00,VWS V14.01,2013-09-01 13:09:00,
2013-09-01 09:15:00,73.5,73.5,29.83,South,180,0.0,2.0,100,0.00,,,0.00,VWS V14.01,2013-09-01 13:15:00,
2013-09-01 09:20:00,73.7,73.7,29.83,WSW,238,1.0,2.0,100,0.00,,,0.00,VWS V14.01,2013-09-01 13:20:00,
2013-09-01 09:25:00,73.9,73.9,29.83,WSW,238,0.0,2.0,100,0.00,,,0.00,VWS V14.01,2013-09-01 13:25:00,
2013-09-01 09:30:00,74.0,74.0,29.83,WSW,238,0.0,2.0,100,0.00,,,0.00,VWS V14.01,2013-09-01 13:30:00,
2013-09-01 09:35:00,74.4,74.4,29.83,SW,228,1.0,2.0,100,0.00,,,0.00,VWS V14.01,2013-09-01 13:35:00,
2013-09-01 09:40:00,74.6,74.6,29.83,SSW,212,0.0,3.0,100,0.00,,,0.00,VWS V14.01,2013-09-01 13:40:00,
2013-09-01 09:45:00,74.7,74.7,29.82,SSE,164,0.0,3.0,100,0.00,,,0.00,VWS V14.01,2013-09-01 13:45:00,
2013-09-01 09:50:00,74.8,74.8,29.82,WSW,244,0.0,4.0,100,0.00,,,0.00,VWS V14.01,2013-09-01 13:50:00,
2013-09-01 09:55:00,74.8,74.8,29.82,WSW,244,0.0,4.0,100,0.00,,,0.00,VWS V14.01,2013-09-01 13:55:00,
2013-09-01 10:00:00,74.8,74.5,29.82,East,95,0.0,0.0,99,0.00,,,0.00,VWS V14.01,2013-09-01 14:00:00,
2013-09-01 10:05:00,74.9,74.6,29.82,East,100,0.0,1.0,99,0.00,,,0.00,VWS V14.01,2013-09-01 14:05:00,
2013-09-01 10:11:00,75.3,75.3,29.82,SW,222,1.0,4.0,100,0.00,,,0.00,VWS V14.01,2013-09-01 14:11:00,
2013-09-01 10:16:00,75.3,75.0,29.82,SW,222,0.0,4.0,99,0.00,,,0.00,VWS V14.01,2013-09-01 14:16:00,
2013-09-01 10:21:00,75.7,75.4,29.81,SW,220,1.0,4.0,99,0.00,,,0.00,VWS V14.01,2013-09-01 14:21:00,
2013-09-01 10:26:00,75.9,75.6,29.82,SW,219,0.0,4.0,99,0.00,,,0.00,VWS V14.01,2013-09-01 14:26:00,
2013-09-01 10:31:00,76.3,76.0,29.82,SW,219,0.0,0.0,99,0.00,,,0.00,VWS V14.01,2013-09-01 14:31:00,
2013-09-01 10:36:00,76.7,76.4,29.82,SW,219,0.0,1.0,99,0.00,,,0.00,VWS V14.01,2013-09-01 14:36:00,
2013-09-01 10:41:00,77.0,76.4,29.82,SW,219,0.0,1.0,98,0.00,,,0.00,VWS V14.01,2013-09-01 14:41:00,
2013-09-01 10:46:00,77.3,76.7,29.82,SW,219,0.0,1.0,98,0.00,,,0.00,VWS V14.01,2013-09-01 14:46:00,
2013-09-01 10:51:00,77.4,76.5,29.83,SW,217,0.0,3.0,97,0.00,,,0.00,VWS V14.01,2013-09-01 14:51:00,
2013-09-01 10:56:00,77.5,76.3,29.83,South,177,0.0,3.0,96,0.00,,,0.00,VWS V14.01,2013-09-01 14:56:00,
2013-09-01 11:02:00,77.6,75.7,29.83,South,181,0.0,1.0,94,0.00,,,0.00,VWS V14.01,2013-09-01 15:02:00,
2013-09-01 11:07:00,77.7,75.8,29.83,South,181,0.0,1.0,94,0.00,,,0.00,VWS V14.01,2013-09-01 15:07:00,
2013-09-01 11:12:00,77.6,75.7,29.83,South,181,0.0,1.0,94,0.00,,,0.00,VWS V14.01,2013-09-01 15:12:00,
2013-09-01 11:17:00,77.8,76.3,29.83,South,188,0.0,3.0,95,0.00,,,0.00,VWS V14.01,2013-09-01 15:17:00,
2013-09-01 11:22:00,77.8,75.6,29.83,SW,227,0.0,3.0,93,0.00,,,0.00,VWS V14.01,2013-09-01 15:22:00,
2013-09-01 11:27:00,78.0,76.1,29.82,SW,227,0.0,3.0,94,0.00,,,0.00,VWS V14.01,2013-09-01 15:27:00,
2013-09-01 11:32:00,78.2,76.3,29.82,SSW,213,0.0,0.0,94,0.00,,,0.00,VWS V14.01,2013-09-01 15:32:00,
2013-09-01 11:37:00,78.3,76.1,29.82,SSW,213,0.0,1.0,93,0.00,,,0.00,VWS V14.01,2013-09-01 15:37:00,
2013-09-01 11:42:00,78.5,76.3,29.82,SSW,206,0.0,1.0,93,0.00,,,0.00,VWS V14.01,2013-09-01 15:42:00,
2013-09-01 11:48:00,78.7,76.8,29.82,SSW,206,0.0,1.0,94,0.00,,,0.00,VWS V14.01,2013-09-01 15:48:00,
2013-09-01 11:53:00,78.8,76.6,29.82,SSW,206,0.0,1.0,93,0.00,,,0.00,VWS V14.01,2013-09-01 15:53:00,
2013-09-01 11:58:00,78.9,76.4,29.82,SSE,157,0.0,2.0,92,0.00,,,0.00,VWS V14.01,2013-09-01 15:58:00,
2013-09-01 12:03:00,79.3,77.1,29.82,SSE,157,0.0,0.0,93,0.00,,,0.00,VWS V14.01,2013-09-01 16:03:00,
2013-09-01 12:08:00,79.5,76.3,29.82,SE,140,0.0,2.0,90,0.00,,,0.00,VWS V14.01,2013-09-01 16:08:00,
2013-09-01 12:13:00,79.4,75.9,29.81,SW,220,0.0,2.0,89,0.00,,,0.00,VWS V14.01,2013-09-01 16:13:00,
2013-09-01 12:18:00,79.2,75.7,29.81,SW,220,0.0,2.0,89,0.00,,,0.00,VWS V14.01,2013-09-01 16:18:00,
2013-09-01 12:23:00,78.9,75.7,29.81,SW,220,1.0,2.0,90,0.00,,,0.00,VWS V14.01,2013-09-01 16:23:00,
2013-09-01 12:28:00,78.4,75.2,29.81,SSE,152,0.0,2.0,90,0.00,,,0.00,VWS V14.01,2013-09-01 16:28:00,
2013-09-01 12:34:00,78.1,75.6,29.82,SSE,152,0.0,1.0,92,0.00,,,0.00,VWS V14.01,2013-09-01 16:34:00,
2013-09-01 12:39:00,77.8,75.0,29.82,North,11,2.0,3.0,91,0.12,,,0.12,VWS V14.01,2013-09-01 16:39:00,
2013-09-01 12:44:00,77.3,75.4,29.81,North,5,0.0,3.0,94,0.12,,,0.12,VWS V14.01,2013-09-01 16:44:00,
2013-09-01 12:49:00,77.1,75.2,29.82,ESE,110,0.0,4.0,94,0.12,,,0.12,VWS V14.01,2013-09-01 16:49:00,
2013-09-01 12:54:00,76.4,74.2,29.82,SW,214,2.0,7.0,93,0.12,,,0.12,VWS V14.01,2013-09-01 16:54:00,
2013-09-01 12:59:00,75.8,73.6,29.83,SW,219,1.0,7.0,93,0.12,,,0.12,VWS V14.01,2013-09-01 16:59:00,
2013-09-01 13:04:00,75.2,73.4,29.83,SE,127,0.0,5.0,94,0.12,,,0.12,VWS V14.01,2013-09-01 17:04:00,
2013-09-01 13:09:00,74.8,73.0,29.83,SSW,204,0.0,5.0,94,0.12,,,0.12,VWS V14.01,2013-09-01 17:09:00,
2013-09-01 13:14:00,74.4,72.6,29.82,SSW,204,0.0,5.0,94,0.12,,,0.12,VWS V14.01,2013-09-01 17:14:00,
2013-09-01 13:20:00,74.2,72.7,29.82,SSW,205,0.0,5.0,95,0.12,,,0.12,VWS V14.01,2013-09-01 17:20:00,
2013-09-01 13:25:00,74.2,72.7,29.82,SSW,205,0.0,5.0,95,0.12,,,0.12,VWS V14.01,2013-09-01 17:25:00,
2013-09-01 13:30:00,74.2,72.7,29.82,SSW,205,0.0,5.0,95,0.12,,,0.12,VWS V14.01,2013-09-01 17:30:00,
2013-09-01 13:35:00,74.2,73.0,29.82,SSW,205,0.0,0.0,96,0.12,,,0.12,VWS V14.01,2013-09-01 17:35:00,
2013-09-01 13:40:00,74.3,73.1,29.82,SSW,205,0.0,0.0,96,0.12,,,0.12,VWS V14.01,2013-09-01 17:40:00,
2013-09-01 13:45:00,74.4,73.5,29.81,SSW,205,0.0,0.0,97,0.12,,,0.12,VWS V14.01,2013-09-01 17:45:00,
2013-09-01 13:50:00,74.6,73.1,29.82,SSW,205,0.0,1.0,95,0.12,,,0.12,VWS V14.01,2013-09-01 17:50:00,
2013-09-01 13:55:00,74.7,72.9,29.82,SSW,205,0.0,1.0,94,0.12,,,0.12,VWS V14.01,2013-09-01 17:55:00,
2013-09-01 14:00:00,74.8,72.0,29.82,South,188,0.0,0.0,91,0.00,,,0.12,VWS V14.01,2013-09-01 18:00:00,
2013-09-01 14:06:00,75.1,73.3,29.82,South,188,0.0,1.0,94,0.00,,,0.12,VWS V14.01,2013-09-01 18:06:00,
2013-09-01 14:11:00,75.7,74.5,29.82,South,188,0.0,1.0,96,0.00,,,0.12,VWS V14.01,2013-09-01 18:11:00,
2013-09-01 14:16:00,76.0,74.5,29.82,South,188,0.0,1.0,95,0.00,,,0.12,VWS V14.01,2013-09-01 18:16:00,
2013-09-01 14:21:00,76.2,74.0,29.81,South,188,0.0,1.0,93,0.00,,,0.12,VWS V14.01,2013-09-01 18:21:00,
2013-09-01 14:26:00,76.6,74.4,29.81,South,188,0.0,1.0,93,0.00,,,0.12,VWS V14.01,2013-09-01 18:26:00,
2013-09-01 14:31:00,76.8,74.6,29.81,South,188,0.0,0.0,93,0.00,,,0.12,VWS V14.01,2013-09-01 18:31:00,
2013-09-01 14:36:00,77.1,74.3,29.81,South,188,0.0,0.0,91,0.00,,,0.12,VWS V14.01,2013-09-01 18:36:00,
2013-09-01 14:41:00,77.3,74.1,29.81,South,188,0.0,1.0,90,0.00,,,0.12,VWS V14.01,2013-09-01 18:41:00,
2013-09-01 14:46:00,77.6,75.1,29.81,South,188,0.0,1.0,92,0.00,,,0.12,VWS V14.01,2013-09-01 18:46:00,
2013-09-01 14:52:00,78.1,76.2,29.81,South,188,0.0,1.0,94,0.00,,,0.12,VWS V14.01,2013-09-01 18:52:00,
2013-09-01 14:57:00,78.4,76.2,29.81,South,188,0.0,1.0,93,0.00,,,0.12,VWS V14.01,2013-09-01 18:57:00,
2013-09-01 15:02:00,78.6,76.1,29.81,NNE,17,0.0,0.0,92,0.00,,,0.12,VWS V14.01,2013-09-01 19:02:00,
2013-09-01 15:07:00,79.0,76.5,29.80,East,82,3.0,3.0,92,0.00,,,0.12,VWS V14.01,2013-09-01 19:07:00,
2013-09-01 15:12:00,79.1,76.2,29.80,SSE,148,1.0,3.0,91,0.00,,,0.12,VWS V14.01,2013-09-01 19:12:00,
2013-09-01 15:17:00,79.1,75.2,29.80,East,95,1.0,4.0,88,0.00,,,0.12,VWS V14.01,2013-09-01 19:17:00,
2013-09-01 15:22:00,79.1,75.2,29.80,NE,34,0.0,4.0,88,0.00,,,0.12,VWS V14.01,2013-09-01 19:22:00,
2013-09-01 15:27:00,79.0,76.2,29.80,SSW,196,0.0,4.0,91,0.00,,,0.12,VWS V14.01,2013-09-01 19:27:00,
2013-09-01 15:32:00,78.8,75.3,29.79,SE,142,0.0,1.0,89,0.00,,,0.12,VWS V14.01,2013-09-01 19:32:00,
2013-09-01 15:38:00,78.7,75.5,29.80,SE,142,0.0,1.0,90,0.00,,,0.12,VWS V14.01,2013-09-01 19:38:00,
2013-09-01 15:43:00,78.4,75.6,29.80,SW,217,1.0,4.0,91,0.00,,,0.12,VWS V14.01,2013-09-01 19:43:00,
2013-09-01 15:48:00,78.3,75.1,29.80,SE,136,0.0,4.0,90,0.00,,,0.12,VWS V14.01,2013-09-01 19:48:00,
2013-09-01 15:53:00,78.2,75.4,29.79,WSW,247,2.0,4.0,91,0.00,,,0.12,VWS V14.01,2013-09-01 19:53:00,
2013-09-01 15:58:00,78.4,76.2,29.79,WSW,250,1.0,5.0,93,0.00,,,0.12,VWS V14.01,2013-09-01 19:58:00,
2013-09-01 16:03:00,78.5,76.0,29.79,SE,138,0.0,2.0,92,0.00,,,0.12,VWS V14.01,2013-09-01 20:03:00,
2013-09-01 16:08:00,78.6,75.4,29.79,WSW,254,3.0,3.0,90,0.00,,,0.12,VWS V14.01,2013-09-01 20:08:00,
2013-09-01 16:13:00,78.8,75.9,29.79,SSW,200,0.0,3.0,91,0.00,,,0.12,VWS V14.01,2013-09-01 20:13:00,
2013-09-01 16:19:00,79.0,75.8,29.79,ESE,121,1.0,5.0,90,0.00,,,0.12,VWS V14.01,2013-09-01 20:19:00,
2013-09-01 16:24:00,79.1,75.9,29.78,ESE,115,1.0,7.0,90,0.00,,,0.12,VWS V14.01,2013-09-01 20:24:00,
2013-09-01 16:29:00,79.1,75.6,29.78,WSW,250,0.0,7.0,89,0.00,,,0.12,VWS V14.01,2013-09-01 20:29:00,
2013-09-01 16:34:00,79.1,75.9,29.78,SW,228,0.0,3.0,90,0.00,,,0.12,VWS V14.01,2013-09-01 20:34:00,
2013-09-01 16:39:00,78.9,75.4,29.79,WSW,239,1.0,4.0,89,0.00,,,0.12,VWS V14.01,2013-09-01 20:39:00,
2013-09-01 16:44:00,78.6,75.1,29.78,ESE,116,0.0,7.0,89,0.00,,,0.12,VWS V14.01,2013-09-01 20:44:00,
2013-09-01 16:49:00,78.5,75.7,29.78,ESE,116,0.0,7.0,91,0.00,,,0.12,VWS V14.01,2013-09-01 20:49:00,
2013-09-01 16:54:00,78.5,76.3,29.78,ESE,116,0.0,7.0,93,0.00,,,0.12,VWS V14.01,2013-09-01 20:54:00,
2013-09-01 16:59:00,78.4,76.2,29.78,ESE,116,0.0,7.0,93,0.00,,,0.12,VWS V14.01,2013-09-01 20:59:00,
2013-09-01 17:05:00,78.3,76.1,29.78,ESE,116,0.0,0.0,93,0.00,,,0.12,VWS V14.01,2013-09-01 21:05:00,
2013-09-01 17:10:00,78.3,76.1,29.78,South,186,0.0,2.0,93,0.00,,,0.12,VWS V14.01,2013-09-01 21:10:00,
2013-09-01 17:15:00,78.2,75.7,29.78,WSW,241,0.0,2.0,92,0.00,,,0.12,VWS V14.01,2013-09-01 21:15:00,
2013-09-01 17:20:00,78.1,75.9,29.79,SW,226,0.0,3.0,93,0.00,,,0.12,VWS V14.01,2013-09-01 21:20:00,
2013-09-01 17:25:00,78.1,76.2,29.79,SW,225,1.0,3.0,94,0.00,,,0.12,VWS V14.01,2013-09-01 21:25:00,
2013-09-01 17:30:00,78.0,76.1,29.79,SW,225,0.0,0.0,94,0.00,,,0.12,VWS V14.01,2013-09-01 21:30:00,
2013-09-01 17:35:00,77.9,76.0,29.79,SW,225,0.0,0.0,94,0.00,,,0.12,VWS V14.01,2013-09-01 21:35:00,
2013-09-01 17:40:00,77.8,75.9,29.79,SW,225,0.0,0.0,94,0.00,,,0.12,VWS V14.01,2013-09-01 21:40:00,
2013-09-01 17:45:00,77.7,75.8,29.79,SW,225,0.0,0.0,94,0.00,,,0.12,VWS V14.01,2013-09-01 21:45:00,
2013-09-01 17:51:00,77.5,75.3,29.79,SW,226,0.0,2.0,93,0.00,,,0.12,VWS V14.01,2013-09-01 21:51:00,
2013-09-01 17:56:00,77.4,75.2,29.79,SW,225,0.0,2.0,93,0.00,,,0.12,VWS V14.01,2013-09-01 21:56:00,
2013-09-01 18:01:00,77.3,75.1,29.79,SW,225,0.0,0.0,93,0.00,,,0.12,VWS V14.01,2013-09-01 22:01:00,
2013-09-01 18:06:00,77.3,75.4,29.79,SW,225,0.0,0.0,94,0.00,,,0.12,VWS V14.01,2013-09-01 22:06:00,
2013-09-01 18:11:00,77.2,75.3,29.80,SW,225,0.0,3.0,94,0.00,,,0.12,VWS V14.01,2013-09-01 22:11:00,
2013-09-01 18:16:00,77.1,74.9,29.79,SW,226,0.0,3.0,93,0.00,,,0.12,VWS V14.01,2013-09-01 22:16:00,
2013-09-01 18:21:00,76.9,74.7,29.79,SSE,165,0.0,3.0,93,0.00,,,0.12,VWS V14.01,2013-09-01 22:21:00,
2013-09-01 18:26:00,76.8,74.6,29.79,SSE,155,1.0,5.0,93,0.00,,,0.12,VWS V14.01,2013-09-01 22:26:00,
2013-09-01 18:32:00,76.7,74.5,29.80,SSE,158,0.0,1.0,93,0.00,,,0.12,VWS V14.01,2013-09-01 22:32:00,
2013-09-01 18:37:00,76.6,74.8,29.80,SSE,158,0.0,1.0,94,0.00,,,0.12,VWS V14.01,2013-09-01 22:37:00,
2013-09-01 18:42:00,76.4,74.6,29.80,WSW,238,0.0,3.0,94,0.00,,,0.12,VWS V14.01,2013-09-01 22:42:00,
2013-09-01 18:47:00,76.3,74.4,29.80,SSW,204,0.0,3.0,94,0.00,,,0.12,VWS V14.01,2013-09-01 22:47:00,
2013-09-01 18:52:00,76.1,74.2,29.80,SSW,204,0.0,3.0,94,0.00,,,0.12,VWS V14.01,2013-09-01 22:52:00,
2013-09-01 18:57:00,76.0,74.2,29.80,SW,228,0.0,3.0,94,0.00,,,0.12,VWS V14.01,2013-09-01 22:57:00,
2013-09-01 19:02:00,75.8,73.9,29.79,SSW,207,0.0,4.0,94,0.00,,,0.12,VWS V14.01,2013-09-01 23:02:00,
2013-09-01 19:07:00,75.8,73.9,29.79,SW,221,0.0,4.0,94,0.00,,,0.12,VWS V14.01,2013-09-01 23:07:00,
2013-09-01 19:12:00,75.7,73.8,29.79,WSW,252,0.0,4.0,94,0.00,,,0.12,VWS V14.01,2013-09-01 23:12:00,
2013-09-01 19:17:00,75.5,73.7,29.79,WSW,237,0.0,4.0,94,0.00,,,0.12,VWS V14.01,2013-09-01 23:17:00,
2013-09-01 19:23:00,75.3,73.8,29.79,SW,231,3.0,4.0,95,0.00,,,0.12,VWS V14.01,2013-09-01 23:23:00,
2013-09-01 19:28:00,75.2,73.7,29.79,SW,231,0.0,4.0,95,0.00,,,0.12,VWS V14.01,2013-09-01 23:28:00,
2013-09-01 19:33:00,75.1,73.6,29.79,SW,231,0.0,1.0,95,0.00,,,0.12,VWS V14.01,2013-09-01 23:33:00,
2013-09-01 19:38:00,75.0,73.5,29.80,SW,231,0.0,1.0,95,0.00,,,0.12,VWS V14.01,2013-09-01 23:38:00,
2013-09-01 19:43:00,74.9,73.4,29.80,SW,231,0.0,1.0,95,0.00,,,0.12,VWS V14.01,2013-09-01 23:43:00,
2013-09-01 19:48:00,74.8,73.3,29.80,SW,231,0.0,1.0,95,0.00,,,0.12,VWS V14.01,2013-09-01 23:48:00,
2013-09-01 19:53:00,74.7,73.5,29.80,SW,231,0.0,1.0,96,0.00,,,0.12,VWS V14.01,2013-09-01 23:53:00,
2013-09-01 19:58:00,74.6,73.4,29.80,SW,231,0.0,1.0,96,0.00,,,0.12,VWS V14.01,2013-09-01 23:58:00,
2013-09-01 20:04:00,74.6,73.4,29.80,SW,231,0.0,1.0,96,0.00,,,0.12,VWS V14.01,2013-09-02 00:04:00,
2013-09-01 20:09:00,74.5,73.3,29.80,SW,231,0.0,1.0,96,0.00,,,0.12,VWS V14.01,2013-09-02 00:09:00,
2013-09-01 20:14:00,74.4,73.2,29.80,SW,231,0.0,1.0,96,0.00,,,0.12,VWS V14.01,2013-09-02 00:14:00,
2013-09-01 20:19:00,74.4,73.5,29.80,SW,231,0.0,1.0,97,0.00,,,0.12,VWS V14.01,2013-09-02 00:19:00,
2013-09-01 20:24:00,74.3,73.1,29.80,SW,231,0.0,1.0,96,0.00,,,0.12,VWS V14.01,2013-09-02 00:24:00,
2013-09-01 20:29:00,74.2,73.3,29.80,SW,231,0.0,1.0,97,0.00,,,0.12,VWS V14.01,2013-09-02 00:29:00,
2013-09-01 20:34:00,74.2,73.3,29.81,SW,231,0.0,0.0,97,0.00,,,0.12,VWS V14.01,2013-09-02 00:34:00,
2013-09-01 20:39:00,74.1,73.2,29.81,SW,231,0.0,0.0,97,0.00,,,0.12,VWS V14.01,2013-09-02 00:39:00,
2013-09-01 20:44:00,74.0,73.1,29.81,SW,231,0.0,0.0,97,0.00,,,0.12,VWS V14.01,2013-09-02 00:44:00,
2013-09-01 20:49:00,73.9,73.0,29.82,SW,231,0.0,0.0,97,0.00,,,0.12,VWS V14.01,2013-09-02 00:49:00,
2013-09-01 20:55:00,73.8,72.9,29.81,SW,231,0.0,0.0,97,0.00,,,0.12,VWS V14.01,2013-09-02 00:55:00,
2013-09-01 21:00:00,73.8,72.9,29.82,SW,231,0.0,0.0,97,0.00,,,0.12,VWS V14.01,2013-09-02 01:00:00,
2013-09-01 21:05:00,73.7,72.8,29.82,SW,231,0.0,0.0,97,0.00,,,0.12,VWS V14.01,2013-09-02 01:05:00,
2013-09-01 21:10:00,73.6,72.7,29.82,SW,231,0.0,0.0,97,0.00,,,0.12,VWS V14.01,2013-09-02 01:10:00,
2013-09-01 21:15:00,73.5,72.6,29.82,SW,231,0.0,0.0,97,0.00,,,0.12,VWS V14.01,2013-09-02 01:15:00,
2013-09-01 21:20:00,73.5,72.6,29.82,SW,234,0.0,2.0,97,0.00,,,0.12,VWS V14.01,2013-09-02 01:20:00,
2013-09-01 21:25:00,73.5,72.6,29.82,SW,234,0.0,2.0,97,0.00,,,0.12,VWS V14.01,2013-09-02 01:25:00,
2013-09-01 21:30:00,73.4,72.5,29.82,SW,234,0.0,1.0,97,0.00,,,0.12,VWS V14.01,2013-09-02 01:30:00,
2013-09-01 21:36:00,73.4,72.5,29.82,SW,234,0.0,2.0,97,0.00,,,0.12,VWS V14.01,2013-09-02 01:36:00,
2013-09-01 21:41:00,73.3,72.4,29.82,SW,234,0.0,2.0,97,0.00,,,0.12,VWS V14.01,2013-09-02 01:41:00,
2013-09-01 21:46:00,73.3,72.4,29.82,SW,234,0.0,2.0,97,0.00,,,0.12,VWS V14.01,2013-09-02 01:46:00,
2013-09-01 21:51:00,73.3,72.4,29.82,East,97,1.0,2.0,97,0.00,,,0.12,VWS V14.01,2013-09-02 01:51:00,
2013-09-01 21:56:00,73.2,72.6,29.82,ESE,107,0.0,2.0,98,0.00,,,0.12,VWS V14.01,2013-09-02 01:56:00,
2013-09-01 22:01:00,73.2,72.6,29.82,ESE,107,0.0,0.0,98,0.00,,,0.12,VWS V14.01,2013-09-02 02:01:00,
2013-09-01 22:06:00,73.2,72.6,29.82,ESE,107,0.0,1.0,98,0.00,,,0.12,VWS V14.01,2013-09-02 02:06:00,
2013-09-01 22:11:00,73.1,72.5,29.82,ESE,107,0.0,1.0,98,0.00,,,0.12,VWS V14.01,2013-09-02 02:11:00,
2013-09-01 22:17:00,73.2,72.6,29.82,ESE,107,0.0,1.0,98,0.00,,,0.12,VWS V14.01,2013-09-02 02:17:00,
2013-09-01 22:22:00,73.2,72.6,29.82,ESE,108,0.0,1.0,98,0.00,,,0.12,VWS V14.01,2013-09-02 02:22:00,
2013-09-01 22:27:00,73.1,72.5,29.82,ESE,108,0.0,1.0,98,0.00,,,0.12,VWS V14.01,2013-09-02 02:27:00,
2013-09-01 22:32:00,73.1,72.5,29.82,ESE,108,0.0,0.0,98,0.00,,,0.12,VWS V14.01,2013-09-02 02:32:00,
2013-09-01 22:37:00,73.0,72.4,29.82,ESE,108,0.0,0.0,98,0.00,,,0.12,VWS V14.01,2013-09-02 02:37:00,
2013-09-01 22:42:00,73.0,72.4,29.82,ESE,108,0.0,1.0,98,0.00,,,0.12,VWS V14.01,2013-09-02 02:42:00,
2013-09-01 22:47:00,73.0,72.4,29.81,ESE,108,0.0,1.0,98,0.00,,,0.12,VWS V14.01,2013-09-02 02:47:00,
2013-09-01 22:52:00,73.0,72.4,29.82,ESE,108,0.0,1.0,98,0.00,,,0.12,VWS V14.01,2013-09-02 02:52:00,
2013-09-01 22:58:00,73.0,72.4,29.81,ESE,108,0.0,1.0,98,0.00,,,0.12,VWS V14.01,2013-09-02 02:58:00,
2013-09-01 23:03:00,73.0,72.4,29.81,ESE,108,0.0,0.0,98,0.00,,,0.12,VWS V14.01,2013-09-02 03:03:00,
2013-09-01 23:08:00,73.0,72.4,29.81,ESE,108,0.0,0.0,98,0.00,,,0.12,VWS V14.01,2013-09-02 03:08:00,
2013-09-01 23:13:00,73.0,72.4,29.81,ESE,108,0.0,0.0,98,0.00,,,0.12,VWS V14.01,2013-09-02 03:13:00,
2013-09-01 23:18:00,72.9,72.3,29.81,ESE,108,0.0,0.0,98,0.00,,,0.12,VWS V14.01,2013-09-02 03:18:00,
2013-09-01 23:23:00,72.9,72.3,29.81,ESE,108,0.0,0.0,98,0.00,,,0.12,VWS V14.01,2013-09-02 03:23:00,
2013-09-01 23:28:00,72.8,72.2,29.81,ESE,108,0.0,0.0,98,0.00,,,0.12,VWS V14.01,2013-09-02 03:28:00,
2013-09-01 23:33:00,72.7,72.1,29.81,SSE,161,0.0,1.0,98,0.00,,,0.12,VWS V14.01,2013-09-02 03:33:00,
2013-09-01 23:38:00,72.7,72.1,29.81,SSE,161,0.0,1.0,98,0.00,,,0.12,VWS V14.01,2013-09-02 03:38:00,
2013-09-01 23:44:00,72.6,72.0,29.81,SSE,161,0.0,1.0,98,0.00,,,0.12,VWS V14.01,2013-09-02 03:44:00,
2013-09-01 23:49:00,72.6,72.0,29.81,SSE,161,0.0,1.0,98,0.00,,,0.12,VWS V14.01,2013-09-02 03:49:00,
2013-09-01 23:54:00,72.6,72.0,29.81,SSE,161,0.0,1.0,98,0.00,,,0.12,VWS V14.01,2013-09-02 03:54:00,
2013-09-01 23:59:00,72.6,72.0,29.81,SSE,161,0.0,1.0,98,0.00,,,0.12,VWS V14.01,2013-09-02 03:59:00,